Time;durP1;ratioP1;P1;durP2;ratioP2;P2;SDS_P1;SDS_P2;PMS_P1;PMS_P2;Temp;Humidity;BMP_temperature;BMP_pressure;BME280_temperature;BME280_humidity;BME280_pressure;Samples;Min_cycle;Max_cycle;Signal;HPM_P1;HPM_P2
2022/06/17 00:00:58;;;;;;;3.13;2.43;;;24.10;65.70;;;;;;5053175;28;20796;-84
2022/06/17 00:03:25;;;;;;;2.20;2.10;;;24.20;44.40;;;;;;5051871;28;20458;-84
2022/06/17 00:05:53;;;;;;;1.80;1.70;;;24.30;54.80;;;;;;5036523;28;20792;-84
2022/06/17 00:08:23;;;;;;;2.40;2.20;;;24.30;45.10;;;;;;5052263;28;20434;-84
2022/06/17 00:10:49;;;;;;;3.17;1.93;;;;;;;;;;5052716;28;20423;-84
2022/06/17 00:13:17;;;;;;;1.50;1.40;;;24.20;45.00;;;;;;5054754;28;20422;-84
2022/06/17 00:15:45;;;;;;;1.17;1.17;;;;;;;;;;5052796;28;20538;-84
2022/06/17 00:18:11;;;;;;;1.00;1.00;;;;;;;;;;5052501;28;20426;-83
2022/06/17 00:20:37;;;;;;;2.07;1.53;;;;;;;;;;5053410;28;20419;-83
2022/06/17 00:23:03;;;;;;;2.20;2.07;;;;;;;;;;5053188;28;20516;-83
2022/06/17 00:25:35;;;;;;;2.50;2.30;;;24.20;42.40;;;;;;5054414;28;20403;-84
2022/06/17 00:28:01;;;;;;;3.30;3.10;;;24.10;44.00;;;;;;5054497;28;20422;-84
2022/06/17 00:30:31;;;;;;;2.20;2.10;;;24.20;46.10;;;;;;5054245;28;20506;-84
2022/06/17 00:33:00;;;;;;;3.33;3.03;;;24.10;46.00;;;;;;5035053;28;20529;-84
2022/06/17 00:35:30;;;;;;;3.77;3.53;;;24.00;51.90;;;;;;5061911;28;20544;-84
2022/06/17 00:37:56;;;;;;;1.70;1.60;;;;;;;;;;5072709;28;20403;-84
2022/06/17 00:40:26;;;;;;;1.70;1.60;;;24.50;45.90;;;;;;5071130;28;20893;-84
2022/06/17 00:42:52;;;;;;;1.47;1.40;;;;;;;;;;5052820;28;20431;-84
2022/06/17 00:45:32;;;;;;;1.37;1.37;;;24.10;42.90;;;;;;5052916;28;20795;-84
2022/06/17 00:48:04;;;;;;;2.57;1.40;;;24.00;42.90;;;;;;5034554;28;20797;-84
2022/06/17 00:50:38;;;;;;;1.27;1.10;;;24.10;43.00;;;;;;5052494;28;20419;-84
2022/06/17 00:53:21;;;;;;;2.87;0.80;;;24.00;43.10;;;;;;5052725;28;20474;-84
2022/06/17 00:55:56;;;;;;;3.23;0.70;;;24.00;45.30;;;;;;5053160;28;20476;-84
2022/06/17 00:58:44;;;;;;;0.80;0.80;;;24.00;45.10;;;;;;5051581;28;20430;-84
2022/06/17 01:01:11;;;;;;;1.10;0.90;;;24.20;63.50;;;;;;5051808;28;21024;-84
2022/06/17 01:03:37;;;;;;;1.83;0.90;;;24.00;45.00;;;;;;5050705;28;20948;-84
2022/06/17 01:06:12;;;;;;;0.70;0.70;;;23.90;43.50;;;;;;5058650;28;20477;-85
2022/06/17 01:11:36;;;;;;;1.20;0.80;;;23.10;44.70;;;;;;5051545;28;20465;-84
2022/06/17 01:14:05;;;;;;;1.10;1.00;;;24.20;45.20;;;;;;5050296;28;20792;-84
2022/06/17 01:16:34;;;;;;;0.80;0.67;;;23.90;44.90;;;;;;5051414;28;20459;-84
2022/06/17 01:19:35;;;;;;;3.90;0.97;;;23.80;44.70;;;;;;5051366;28;20827;-84
2022/06/17 01:22:25;;;;;;;1.40;1.30;;;24.10;43.60;;;;;;5051494;28;20438;-84
2022/06/17 01:24:56;;;;;;;0.80;0.70;;;23.80;44.40;;;;;;5051115;28;20419;-84
2022/06/17 01:27:25;;;;;;;0.73;0.73;;;23.90;44.40;;;;;;5051812;28;20403;-84
2022/06/17 01:29:51;;;;;;;2.13;0.90;;;;;;;;;;5051547;28;20395;-84
2022/06/17 01:32:22;;;;;;;0.83;0.83;;;23.90;44.30;;;;;;5050867;28;20445;-84
2022/06/17 01:34:48;;;;;;;1.07;0.97;;;;;;;;;;5035535;28;20442;-84
2022/06/17 01:37:14;;;;;;;2.07;1.27;;;;;;;;;;5071185;28;20465;-84
2022/06/17 01:39:41;;;;;;;0.90;0.70;;;;;;;;;;5070869;28;20409;-84
2022/06/17 01:42:08;;;;;;;1.03;0.93;;;;;;;;;;5057479;28;20462;-84
2022/06/17 01:44:37;;;;;;;0.70;0.70;;;23.70;44.80;;;;;;5050915;28;20447;-84
2022/06/17 01:47:06;;;;;;;2.20;0.60;;;23.80;44.70;;;;;;5051063;28;20445;-84
2022/06/17 01:49:46;;;;;;;2.73;0.90;;;23.80;44.70;;;;;;5050840;28;20481;-84
2022/06/17 01:52:34;;;;;;;0.73;0.73;;;23.80;45.20;;;;;;5050349;28;20461;-84
2022/06/17 01:55:08;;;;;;;2.67;0.97;;;23.70;43.50;;;;;;5050580;28;20418;-84
2022/06/17 01:57:39;;;;;;;1.00;1.00;;;23.50;45.20;;;;;;5051240;28;20544;-84
2022/06/17 02:00:20;;;;;;;0.90;0.70;;;23.70;43.80;;;;;;5033236;28;20417;-84
2022/06/17 02:02:51;;;;;;;1.80;0.70;;;23.70;45.40;;;;;;5032603;28;20442;-84
2022/06/17 02:05:18;;;;;;;1.17;0.80;;;;;;;;;;5050840;28;20895;-84
2022/06/17 02:07:52;;;;;;;0.80;0.80;;;23.60;45.20;;;;;;5050897;28;20506;-84
2022/06/17 02:10:20;;;;;;;0.70;0.70;;;23.50;45.80;;;;;;5050660;28;20771;-85
2022/06/17 02:12:46;;;;;;;2.40;0.80;;;;;;;;;;5050211;28;20481;-84
2022/06/17 02:15:12;;;;;;;1.37;1.00;;;23.60;45.90;;;;;;5050890;28;20450;-84
2022/06/17 02:17:42;;;;;;;0.80;0.80;;;23.50;45.70;;;;;;5032352;28;20512;-84
2022/06/17 02:20:10;;;;;;;10.03;1.33;;;23.60;45.80;;;;;;5050459;28;20413;-84
2022/06/17 02:22:37;;;;;;;0.80;0.80;;;;;;;;;;5032604;28;20538;-84
2022/06/17 02:25:10;;;;;;;2.30;0.70;;;23.40;49.20;;;;;;5050657;28;20963;-84
2022/06/17 02:27:36;;;;;;;0.80;0.80;;;;;;;;;;5050805;28;20423;-84
2022/06/17 02:30:05;;;;;;;1.80;1.10;;;23.50;46.20;;;;;;5050644;28;20403;-84
2022/06/17 02:32:32;;;;;;;1.10;1.00;;;23.60;45.70;;;;;;5032336;28;20930;-84
2022/06/17 02:35:04;;;;;;;0.80;0.80;;;23.30;46.70;;;;;;5055620;28;20549;-84
2022/06/17 02:37:31;;;;;;;5.60;0.80;;;23.30;47.10;;;;;;5047792;28;20502;-84
2022/06/17 02:39:59;;;;;;;0.70;0.70;;;23.30;47.10;;;;;;5050397;28;20577;-84
2022/06/17 02:42:30;;;;;;;1.43;0.70;;;23.30;47.20;;;;;;5050116;28;20492;-83
2022/06/17 02:45:03;;;;;;;1.50;1.20;;;23.20;46.10;;;;;;5049789;28;20406;-84
2022/06/17 02:47:29;;;;;;;1.67;1.10;;;23.20;46.70;;;;;;5032063;28;20422;-85
2022/06/17 02:49:55;;;;;;;0.93;0.87;;;23.20;67.10;;;;;;5050129;28;20403;-84
2022/06/17 02:52:30;;;;;;;1.27;1.00;;;23.20;47.10;;;;;;5049831;28;20438;-84
2022/06/17 02:54:59;;;;;;;0.80;0.80;;;23.00;49.40;;;;;;5050324;28;20163;-84
2022/06/17 02:57:28;;;;;;;1.90;0.90;;;23.10;47.00;;;;;;5050011;28;20431;-85
2022/06/17 03:00:20;;;;;;;1.17;1.03;;;23.20;52.30;;;;;;5032131;28;20454;-85
2022/06/17 03:02:53;;;;;;;0.90;0.90;;;23.00;51.40;;;;;;5049925;28;20439;-84
2022/06/17 03:05:28;;;;;;;1.27;1.17;;;23.00;46.00;;;;;;5049836;28;20458;-85
2022/06/17 03:07:55;;;;;;;1.40;1.23;;;23.50;47.10;;;;;;5049505;28;20517;-84
2022/06/17 03:10:34;;;;;;;1.47;0.80;;;23.00;46.30;;;;;;5049972;28;20812;-84
2022/06/17 03:13:20;;;;;;;0.60;0.60;;;23.00;49.40;;;;;;5049262;28;20616;-84
2022/06/17 03:15:49;;;;;;;1.27;1.17;;;24.40;53.30;;;;;;5048714;28;20508;-85
2022/06/17 03:18:15;;;;;;;3.57;1.30;;;;;;;;;;5048760;28;20431;-84
2022/06/17 03:20:42;;;;;;;0.63;0.63;;;22.90;59.90;;;;;;5032649;28;20415;-84
2022/06/17 03:23:16;;;;;;;1.07;0.80;;;23.00;48.00;;;;;;5046494;28;20949;-84
2022/06/17 03:25:48;;;;;;;0.90;0.90;;;22.90;46.80;;;;;;5049911;28;20399;-84
2022/06/17 03:28:19;;;;;;;1.53;1.30;;;22.90;47.30;;;;;;5049691;28;20497;-84
2022/06/17 03:30:50;;;;;;;0.80;0.80;;;22.90;47.50;;;;;;5031816;28;20751;-84
2022/06/17 03:33:26;;;;;;;2.00;1.10;;;22.90;46.40;;;;;;5049389;28;20490;-85
2022/06/17 03:36:08;;;;;;;0.97;0.97;;;23.30;47.40;;;;;;5044075;28;20461;-84
2022/06/17 03:38:40;;;;;;;1.57;0.90;;;22.60;46.10;;;;;;5051675;28;20488;-84
2022/06/17 03:41:12;;;;;;;1.20;0.83;;;22.90;47.30;;;;;;5063292;28;20439;-84
2022/06/17 03:43:55;;;;;;;0.83;0.83;;;22.80;46.20;;;;;;5048988;28;20910;-84
2022/06/17 03:46:24;;;;;;;1.03;0.80;;;22.80;47.10;;;;;;5049585;28;20402;-84
2022/06/17 03:49:00;;;;;;;0.90;0.90;;;22.30;47.00;;;;;;5049525;28;20430;-84
2022/06/17 03:51:26;;;;;;;1.27;0.90;;;22.80;46.70;;;;;;5049333;28;20422;-84
2022/06/17 03:53:53;;;;;;;1.13;0.90;;;;;;;;;;5031470;28;20501;-84
2022/06/17 03:56:25;;;;;;;1.03;1.00;;;22.80;46.20;;;;;;5031553;28;20803;-85
2022/06/17 03:58:53;;;;;;;2.67;1.27;;;22.80;47.50;;;;;;5049416;28;20442;-84
2022/06/17 04:01:41;;;;;;;1.10;1.00;;;22.80;46.50;;;;;;5031088;28;20945;-84
2022/06/17 04:04:23;;;;;;;5.33;1.00;;;23.50;50.90;;;;;;5049302;28;20413;-84
2022/06/17 04:06:52;;;;;;;1.37;1.27;;;22.70;47.80;;;;;;5049175;28;20448;-84
2022/06/17 04:09:24;;;;;;;1.17;1.10;;;22.80;46.80;;;;;;5048868;28;20431;-85
2022/06/17 04:11:54;;;;;;;1.27;0.97;;;22.80;47.90;;;;;;5030910;28;20517;-84
2022/06/17 04:14:28;;;;;;;0.93;0.93;;;22.70;47.80;;;;;;5031210;28;20415;-84
2022/06/17 04:17:04;;;;;;;0.70;0.70;;;22.80;47.00;;;;;;5049182;28;20501;-84
2022/06/17 04:19:30;;;;;;;0.87;0.87;;;;;;;;;;5048566;28;20521;-84
2022/06/17 04:22:21;;;;;;;1.30;1.20;;;22.80;62.70;;;;;;5048864;28;20896;-84
2022/06/17 04:24:52;;;;;;;1.43;1.13;;;22.60;47.90;;;;;;5049193;28;20863;-84
2022/06/17 04:27:19;;;;;;;1.07;0.97;;;23.00;48.40;;;;;;5031061;28;20970;-84
2022/06/17 04:29:49;;;;;;;0.73;0.73;;;22.70;48.30;;;;;;5048160;28;20427;-85
2022/06/17 04:32:45;;;;;;;1.47;1.07;;;22.60;55.30;;;;;;5030463;28;20454;-85
2022/06/17 04:35:13;;;;;;;0.80;0.80;;;22.80;47.40;;;;;;5042299;28;20734;-85
2022/06/17 04:37:40;;;;;;;2.30;1.17;;;22.80;48.10;;;;;;5069179;28;20426;-85
2022/06/17 04:40:25;;;;;;;0.80;0.80;;;22.70;47.90;;;;;;5052683;28;20536;-85
2022/06/17 04:42:52;;;;;;;1.10;1.00;;;22.80;48.10;;;;;;5052215;28;20450;-84
2022/06/17 04:45:18;;;;;;;2.20;1.00;;;;;;;;;;5052946;28;20418;-84
2022/06/17 04:47:44;;;;;;;0.97;0.97;;;;;;;;;;5052572;28;20407;-84
2022/06/17 04:50:14;;;;;;;1.10;0.80;;;22.90;48.00;;;;;;5052432;28;20407;-84
2022/06/17 04:52:46;;;;;;;1.67;1.13;;;24.50;48.20;;;;;;5037495;28;20455;-83
2022/06/17 04:55:20;;;;;;;2.93;1.60;;;22.90;47.30;;;;;;5044994;28;20762;-83
2022/06/17 04:57:47;;;;;;;1.20;0.90;;;22.70;47.90;;;;;;5056370;28;20498;-83
2022/06/17 05:00:19;;;;;;;1.27;1.17;;;22.90;47.30;;;;;;5055029;28;20514;-83
2022/06/17 05:02:45;;;;;;;1.10;1.00;;;;;;;;;;5037641;28;20463;-82
2022/06/17 05:05:15;;;;;;;1.37;1.00;;;23.50;52.90;;;;;;5051500;28;20484;-83
2022/06/17 05:07:45;;;;;;;1.00;1.00;;;22.80;47.80;;;;;;5054628;28;20441;-83
2022/06/17 05:10:34;;;;;;;0.80;0.80;;;23.90;48.50;;;;;;5054409;28;20526;-82
2022/06/17 05:13:09;;;;;;;0.70;0.70;;;20.80;47.00;;;;;;5054544;28;20427;-82
2022/06/17 05:15:36;;;;;;;1.00;0.80;;;22.90;54.20;;;;;;5054788;28;20488;-83
2022/06/17 05:18:02;;;;;;;1.33;1.23;;;22.80;64.30;;;;;;5050831;28;20508;-82
2022/06/17 05:20:28;;;;;;;1.73;1.37;;;;;;;;;;5054255;28;20419;-82
2022/06/17 05:22:54;;;;;;;1.47;0.87;;;;;;;;;;5052707;28;20447;-82
2022/06/17 05:25:28;;;;;;;0.93;0.93;;;22.70;48.50;;;;;;5054386;28;20454;-82
2022/06/17 05:27:55;;;;;;;1.10;0.70;;;;;;;;;;5038103;28;20176;-82
2022/06/17 05:30:21;;;;;;;1.20;1.10;;;23.00;48.60;;;;;;5054028;28;20422;-82
2022/06/17 05:32:51;;;;;;;2.40;1.30;;;23.00;49.10;;;;;;5045556;28;20795;-80
2022/06/17 05:35:18;;;;;;;1.10;1.10;;;23.00;48.80;;;;;;5060184;28;20548;-80
2022/06/17 05:37:44;;;;;;;1.10;1.00;;;;;;;;;;5056233;28;20419;-81
2022/06/17 05:40:13;;;;;;;0.80;0.80;;;23.10;56.60;;;;;;5042316;28;20447;-80
2022/06/17 05:42:40;;;;;;;2.80;1.17;;;23.20;49.90;;;;;;5057554;28;20497;-80
2022/06/17 05:45:07;;;;;;;4.20;0.77;;;23.20;50.10;;;;;;5037620;28;20438;-84
2022/06/17 05:47:33;;;;;;;1.13;0.90;;;;;;;;;;5056226;28;20418;-80
2022/06/17 05:49:59;;;;;;;1.57;1.10;;;;;;;;;;5037420;28;20422;-81
2022/06/17 05:52:25;;;;;;;0.77;0.77;;;;;;;;;;5054859;28;20443;-80
2022/06/17 05:54:59;;;;;;;1.00;1.00;;;23.20;69.40;;;;;;5051705;28;20426;-85
2022/06/17 05:57:25;;;;;;;3.03;1.00;;;;;;;;;;5052495;28;20461;-85
2022/06/17 05:59:51;;;;;;;3.00;1.20;;;;;;;;;;5048023;28;20442;-83
2022/06/17 06:02:17;;;;;;;0.87;0.87;;;;;;;;;;5044639;28;20539;-83
2022/06/17 06:04:43;;;;;;;1.00;0.90;;;;;;;;;;5051713;28;20561;-85
2022/06/17 06:07:09;;;;;;;2.20;1.20;;;;;;;;;;5051533;28;20442;-86
2022/06/17 06:09:35;;;;;;;1.70;0.80;;;;;;;;;;5050397;28;20450;-86
2022/06/17 06:12:01;;;;;;;0.90;0.63;;;;;;;;;;5050237;28;20523;-85
2022/06/17 06:14:27;;;;;;;3.50;0.70;;;;;;;;;;5050459;28;20423;-85
2022/06/17 06:16:53;;;;;;;0.83;0.83;;;;;;;;;;5050970;28;20822;-86
2022/06/17 06:19:19;;;;;;;4.20;0.87;;;;;;;;;;5050427;28;20419;-85
2022/06/17 06:21:45;;;;;;;1.97;1.87;;;;;;;;;;5049866;28;20526;-85
2022/06/17 06:24:11;;;;;;;1.47;1.00;;;;;;;;;;5048708;28;20435;-83
2022/06/17 06:26:37;;;;;;;1.13;0.80;;;;;;;;;;5050686;28;20419;-84
2022/06/17 06:29:06;;;;;;;1.00;1.00;;;;;;;;;;5059153;28;20425;-81
2022/06/17 06:31:34;;;;;;;0.97;0.97;;;23.70;53.70;;;;;;5050072;28;20431;-82
2022/06/17 06:34:00;;;;;;;1.40;1.30;;;;;;;;;;5062928;28;20914;-84
2022/06/17 06:36:26;;;;;;;1.00;1.00;;;;;;;;;;5055090;28;20960;-87
2022/06/17 06:38:52;;;;;;;5.67;5.07;;;;;;;;;;5041028;28;20431;-88
2022/06/17 06:41:20;;;;;;;4.07;3.63;;;;;;;;;;5048398;28;20447;-88
2022/06/17 06:43:46;;;;;;;2.10;2.00;;;;;;;;;;5048980;28;20426;-88
2022/06/17 06:46:15;;;;;;;1.63;1.53;;;21.90;50.70;;;;;;5031056;28;20458;-88
2022/06/17 06:48:42;;;;;;;0.80;0.80;;;23.80;50.40;;;;;;5056996;28;20423;-88
2022/06/17 06:51:08;;;;;;;5.63;2.13;;;;;;;;;;5049813;28;20461;-88
2022/06/17 06:53:34;;;;;;;4.23;1.63;;;;;;;;;;5049489;28;20892;-88
2022/06/17 06:56:00;;;;;;;0.97;0.97;;;;;;;;;;5057751;28;20462;-88
2022/06/17 06:58:26;;;;;;;5.60;1.40;;;;;;;;;;5052688;28;20422;-88
2022/06/17 07:00:54;;;;;;;2.00;1.60;;;23.90;50.90;;;;;;5049824;28;20399;-88
2022/06/17 07:03:20;;;;;;;0.73;0.73;;;;;;;;;;5049910;28;20430;-87
2022/06/17 07:05:49;;;;;;;1.30;1.20;;;23.90;51.00;;;;;;5049593;28;20568;-87
2022/06/17 07:08:18;;;;;;;1.50;1.40;;;23.90;50.90;;;;;;5049235;28;20559;-88
2022/06/17 07:10:45;;;;;;;1.10;1.00;;;23.90;50.80;;;;;;5049678;28;20431;-88
2022/06/17 07:13:12;;;;;;;1.27;0.90;;;;;;;;;;5054597;28;20570;-88
2022/06/17 07:15:40;;;;;;;1.13;0.80;;;23.60;50.50;;;;;;5049464;28;20462;-88
2022/06/17 07:18:20;;;;;;;1.83;1.43;;;23.80;78.10;;;;;;5031554;28;20438;-88
2022/06/17 07:20:54;;;;;;;1.90;1.00;;;24.30;50.80;;;;;;5049334;28;20918;-88
2022/06/17 07:23:24;;;;;;;1.17;1.10;;;23.90;50.70;;;;;;5049250;28;20469;-88
2022/06/17 07:25:50;;;;;;;1.20;1.10;;;23.80;58.30;;;;;;5049486;28;20882;-88
2022/06/17 07:28:19;;;;;;;1.73;1.30;;;23.90;51.20;;;;;;5048913;28;20438;-88
2022/06/17 07:30:47;;;;;;;1.87;1.60;;;24.00;51.70;;;;;;5047522;28;20775;-88
2022/06/17 07:33:14;;;;;;;1.83;1.73;;;;;;;;;;5047721;28;20429;-87
2022/06/17 07:35:41;;;;;;;1.10;1.10;;;23.90;51.10;;;;;;5055077;28;20872;-87
2022/06/17 07:40:58;;;;;;;1.77;1.67;;;;;;;;;;5043876;28;20414;-87
2022/06/17 07:43:24;;;;;;;1.10;1.10;;;;;;;;;;5052203;28;20484;-87
2022/06/17 07:45:50;;;;;;;1.83;1.73;;;24.00;50.50;;;;;;5051321;28;20925;-88
2022/06/17 07:48:18;;;;;;;1.80;1.70;;;23.80;78.60;;;;;;5058696;28;20427;-87
2022/06/17 07:50:44;;;;;;;1.10;1.10;;;;;;;;;;5058545;28;20908;-88
2022/06/17 07:53:10;;;;;;;2.90;1.40;;;;;;;;;;5052442;28;20423;-88
2022/06/17 07:55:36;;;;;;;1.40;1.40;;;;;;;;;;5030480;28;20538;-88
2022/06/17 07:58:02;;;;;;;1.10;1.10;;;;;;;;;;5048598;28;20526;-88
2022/06/17 08:00:33;;;;;;;4.80;1.10;;;22.90;50.20;;;;;;5048671;28;20445;-87
2022/06/17 08:02:59;;;;;;;1.50;1.40;;;24.00;50.00;;;;;;5048356;28;20470;-88
2022/06/17 08:05:25;;;;;;;1.37;1.07;;;;;;;;;;5048404;28;20455;-88
2022/06/17 08:07:53;;;;;;;1.53;1.30;;;24.00;50.80;;;;;;5032519;28;20275;-88
2022/06/17 08:10:21;;;;;;;0.93;0.93;;;24.00;50.60;;;;;;5034497;28;20430;-88
2022/06/17 08:12:47;;;;;;;1.77;1.40;;;;;;;;;;5052616;28;20485;-88
2022/06/17 08:15:13;;;;;;;1.83;1.10;;;;;;;;;;5052613;28;20450;-87
2022/06/17 08:17:41;;;;;;;1.50;1.30;;;24.10;50.80;;;;;;5052784;28;20450;-88
2022/06/17 08:20:19;;;;;;;2.27;1.10;;;24.10;50.90;;;;;;5049330;28;20425;-88
2022/06/17 08:22:45;;;;;;;2.10;1.00;;;;;;;;;;5052373;28;20867;-88
2022/06/17 08:25:12;;;;;;;0.90;0.90;;;;;;;;;;5034423;28;20426;-88
2022/06/17 08:27:50;;;;;;;0.87;0.87;;;24.10;49.00;;;;;;5052428;28;20451;-88
2022/06/17 08:30:19;;;;;;;1.27;1.17;;;24.10;51.00;;;;;;5052580;28;20568;-88
2022/06/17 08:32:45;;;;;;;1.50;0.90;;;;;;;;;;5051941;28;20447;-88
2022/06/17 08:35:11;;;;;;;0.90;0.90;;;;;;;;;;5059221;28;20421;-88
2022/06/17 08:37:37;;;;;;;2.20;1.10;;;;;;;;;;5068624;28;20478;-88
2022/06/17 08:40:16;;;;;;;1.40;1.30;;;24.00;50.60;;;;;;5052190;28;20415;-88
2022/06/17 08:42:58;;;;;;;1.63;1.10;;;24.10;50.80;;;;;;5052273;28;20446;-88
2022/06/17 08:45:44;;;;;;;1.73;1.20;;;24.00;50.60;;;;;;5052570;28;20433;-88
2022/06/17 08:48:26;;;;;;;1.87;0.70;;;24.10;48.90;;;;;;5052388;28;20470;-87
2022/06/17 08:51:41;;;;;;;3.33;1.50;;;24.10;49.00;;;;;;5051971;28;20427;-88
2022/06/17 08:54:30;;;;;;;1.00;0.97;;;24.10;51.40;;;;;;5034330;28;20954;-87
2022/06/17 08:57:13;;;;;;;1.00;0.80;;;24.10;49.20;;;;;;5051867;28;20455;-88
2022/06/17 09:00:04;;;;;;;0.93;0.87;;;24.10;49.00;;;;;;5052078;28;21078;-88
2022/06/17 09:02:56;;;;;;;1.37;1.10;;;24.10;49.20;;;;;;5051759;28;20446;-88
2022/06/17 09:05:37;;;;;;;1.20;0.93;;;24.10;49.20;;;;;;5030716;28;20426;-88
2022/06/17 09:08:21;;;;;;;0.80;0.80;;;24.10;50.90;;;;;;5053111;28;20529;-87
2022/06/17 09:11:11;;;;;;;1.57;0.90;;;24.10;49.10;;;;;;5051980;28;20447;-87
2022/06/17 09:13:55;;;;;;;0.80;0.80;;;24.00;51.00;;;;;;5052315;28;20418;-87
2022/06/17 09:16:58;;;;;;;1.53;1.30;;;24.00;65.60;;;;;;5051791;28;20462;-87
2022/06/17 09:19:29;;;;;;;1.50;0.90;;;24.10;51.20;;;;;;5048101;28;20422;-87
2022/06/17 09:22:18;;;;;;;2.00;0.80;;;24.30;51.10;;;;;;5051390;28;20454;-87
2022/06/17 09:24:44;;;;;;;0.70;0.60;;;24.50;50.70;;;;;;5052180;28;20395;-88
2022/06/17 09:27:20;;;;;;;0.80;0.80;;;24.10;49.20;;;;;;5052000;28;20452;-88
2022/06/17 09:30:20;;;;;;;1.00;0.90;;;24.20;49.40;;;;;;5051224;28;20418;-88
2022/06/17 09:32:46;;;;;;;1.07;0.83;;;;;;;;;;5051440;28;20447;-88
2022/06/17 09:35:35;;;;;;;0.80;0.80;;;24.10;49.30;;;;;;5033922;28;20419;-88
2022/06/17 09:38:22;;;;;;;3.63;1.00;;;24.20;51.10;;;;;;5051450;28;20164;-88
2022/06/17 09:40:59;;;;;;;1.20;0.70;;;24.20;51.20;;;;;;5050931;28;20419;-88
2022/06/17 09:43:36;;;;;;;0.97;0.97;;;24.20;49.40;;;;;;5051407;28;20489;-88
2022/06/17 09:46:24;;;;;;;1.00;0.90;;;24.20;49.60;;;;;;5052503;28;20507;-87
2022/06/17 09:48:58;;;;;;;0.93;0.93;;;24.10;49.40;;;;;;5033122;28;20431;-87
2022/06/17 09:51:38;;;;;;;0.70;0.70;;;24.60;51.30;;;;;;5051053;28;20453;-87
2022/06/17 09:54:28;;;;;;;0.60;0.60;;;24.20;51.30;;;;;;5051042;28;20431;-87
2022/06/17 09:57:08;;;;;;;0.60;0.60;;;24.00;49.40;;;;;;5050998;28;20533;-87
2022/06/17 09:59:43;;;;;;;4.67;1.60;;;24.50;51.50;;;;;;5032958;28;20909;-88
2022/06/17 10:02:22;;;;;;;0.90;0.80;;;24.20;49.50;;;;;;5050883;28;20450;-88
2022/06/17 10:04:48;;;;;;;0.70;0.70;;;;;;;;;;5032715;28;20434;-88
2022/06/17 10:07:36;;;;;;;0.93;0.93;;;24.20;51.20;;;;;;5050796;28;20894;-88
2022/06/17 10:10:23;;;;;;;0.70;0.70;;;23.80;50.10;;;;;;5050397;28;20824;-87
2022/06/17 10:12:55;;;;;;;0.90;0.90;;;24.20;49.40;;;;;;5050357;28;20446;-87
2022/06/17 10:15:34;;;;;;;1.30;1.20;;;24.20;53.20;;;;;;5050284;28;20415;-87
2022/06/17 10:18:33;;;;;;;1.10;0.70;;;24.30;52.80;;;;;;5050438;28;20420;-88
2022/06/17 10:20:59;;;;;;;1.40;1.00;;;;;;;;;;5031804;28;20931;-87
2022/06/17 10:23:56;;;;;;;0.70;0.70;;;23.70;49.30;;;;;;5050068;28;20430;-87
2022/06/17 10:26:44;;;;;;;0.70;0.70;;;24.20;49.60;;;;;;5050169;28;20251;-88
2022/06/17 10:29:16;;;;;;;0.87;0.87;;;;;;;;;;5049487;28;20941;-87
2022/06/17 10:31:45;;;;;;;0.67;0.67;;;24.20;51.90;;;;;;5049640;28;20466;-87
2022/06/17 10:34:50;;;;;;;1.33;0.90;;;24.30;49.70;;;;;;5040378;28;20529;-87
2022/06/17 10:37:16;;;;;;;1.00;1.00;;;;;;;;;;5033514;28;20466;-87
2022/06/17 10:39:43;;;;;;;1.67;0.77;;;;;;;;;;5031810;28;20419;-87
2022/06/17 10:42:15;;;;;;;1.53;1.20;;;24.30;52.00;;;;;;5050362;28;20517;-87
2022/06/17 10:44:45;;;;;;;1.37;1.20;;;24.30;51.40;;;;;;5050619;28;20502;-87
2022/06/17 10:47:17;;;;;;;1.13;0.93;;;24.30;49.90;;;;;;5050128;28;20423;-87
2022/06/17 10:49:50;;;;;;;0.90;0.90;;;24.30;51.40;;;;;;5033974;28;20490;-87
2022/06/17 10:52:26;;;;;;;1.13;1.00;;;24.30;51.30;;;;;;5049635;28;20516;-87
2022/06/17 10:54:54;;;;;;;1.00;0.90;;;24.30;51.20;;;;;;5046431;28;20439;-87
2022/06/17 10:57:32;;;;;;;0.83;0.83;;;24.50;49.70;;;;;;5048137;28;20466;-87
2022/06/17 10:59:58;;;;;;;0.70;0.70;;;;;;;;;;5035516;28;20434;-86
2022/06/17 11:02:31;;;;;;;0.60;0.60;;;24.70;56.50;;;;;;5047937;28;20450;-86
2022/06/17 11:05:00;;;;;;;0.80;0.80;;;24.30;51.30;;;;;;5046335;28;20423;-86
2022/06/17 11:07:37;;;;;;;0.80;0.80;;;24.30;49.60;;;;;;5049073;28;20549;-87
2022/06/17 11:10:14;;;;;;;0.60;0.60;;;24.30;52.40;;;;;;5048997;28;20409;-87
2022/06/17 11:13:02;;;;;;;0.70;0.67;;;24.30;66.40;;;;;;5047017;28;20442;-86
2022/06/17 11:15:28;;;;;;;0.90;0.90;;;;;;;;;;5049390;28;20445;-86
2022/06/17 11:17:58;;;;;;;0.73;0.73;;;24.30;51.40;;;;;;5048830;28;20887;-87
2022/06/17 11:20:33;;;;;;;0.80;0.80;;;24.30;49.80;;;;;;5048139;28;20561;-87
2022/06/17 11:23:02;;;;;;;0.97;0.97;;;23.40;51.10;;;;;;5049229;28;20482;-87
2022/06/17 11:25:37;;;;;;;1.17;0.90;;;24.40;51.60;;;;;;5048843;28;20918;-87
2022/06/17 11:28:11;;;;;;;0.90;0.90;;;24.00;49.50;;;;;;5049160;28;20526;-87
2022/06/17 11:31:08;;;;;;;0.80;0.80;;;24.30;51.40;;;;;;5044355;28;20547;-87
2022/06/17 11:33:54;;;;;;;1.17;1.07;;;24.30;49.90;;;;;;5035707;28;20891;-87
2022/06/17 11:36:35;;;;;;;0.67;0.67;;;24.30;58.30;;;;;;5049047;28;20553;-88
2022/06/17 11:39:34;;;;;;;1.27;0.80;;;24.40;50.40;;;;;;5034201;28;20423;-88
2022/06/17 11:42:17;;;;;;;0.57;0.57;;;24.30;54.20;;;;;;5036738;28;20439;-87
2022/06/17 11:45:03;;;;;;;0.70;0.70;;;24.60;54.40;;;;;;5045251;28;20483;-86
2022/06/17 11:47:32;;;;;;;1.17;0.77;;;24.40;53.20;;;;;;5040041;28;20430;-87
2022/06/17 11:50:10;;;;;;;1.00;0.87;;;24.20;56.20;;;;;;5038046;28;20429;-87
2022/06/17 11:52:37;;;;;;;0.60;0.60;;;24.50;73.60;;;;;;5053009;28;20450;-87
2022/06/17 11:55:04;;;;;;;1.20;0.93;;;24.50;51.40;;;;;;5051788;28;20462;-86
2022/06/17 11:57:34;;;;;;;1.57;1.10;;;24.20;57.10;;;;;;5052818;28;20524;-86
2022/06/17 12:00:07;;;;;;;0.67;0.67;;;24.30;51.70;;;;;;5034509;28;20442;-87
2022/06/17 12:02:33;;;;;;;0.87;0.87;;;;;;;;;;5052558;28;20923;-87
2022/06/17 12:05:07;;;;;;;1.10;0.70;;;24.40;50.60;;;;;;5052711;28;20430;-87
2022/06/17 12:07:58;;;;;;;0.60;0.60;;;24.40;50.60;;;;;;5034726;28;20547;-88
2022/06/17 12:10:50;;;;;;;1.33;0.63;;;24.60;50.70;;;;;;5052727;28;20837;-85
2022/06/17 12:13:39;;;;;;;3.23;1.00;;;24.50;50.60;;;;;;5052962;28;20410;-87
2022/06/17 12:16:15;;;;;;;0.70;0.57;;;24.40;50.70;;;;;;5053164;28;20529;-87
2022/06/17 12:18:44;;;;;;;0.70;0.70;;;24.50;51.70;;;;;;5053104;28;20429;-87
2022/06/17 12:21:10;;;;;;;1.13;1.03;;;;;;;;;;5052980;28;20516;-87
2022/06/17 12:23:43;;;;;;;0.90;0.90;;;24.50;50.80;;;;;;5053266;28;20785;-87
2022/06/17 12:26:15;;;;;;;0.70;0.70;;;24.30;66.50;;;;;;5052872;28;20431;-87
2022/06/17 12:29:01;;;;;;;1.03;0.77;;;24.50;52.00;;;;;;5052281;28;20445;-87
2022/06/17 12:31:51;;;;;;;0.80;0.80;;;24.90;51.00;;;;;;5051916;28;20487;-87
2022/06/17 12:34:40;;;;;;;0.87;0.70;;;24.50;50.80;;;;;;5052268;28;20468;-88
2022/06/17 12:37:40;;;;;;;2.20;0.97;;;24.50;50.80;;;;;;5043636;28;20523;-87
2022/06/17 12:40:20;;;;;;;0.63;0.63;;;24.50;51.70;;;;;;5051568;28;20441;-88
2022/06/17 12:42:51;;;;;;;0.70;0.70;;;24.40;54.20;;;;;;5052740;28;20449;-87
2022/06/17 12:45:30;;;;;;;0.77;0.77;;;24.50;51.70;;;;;;5054231;28;20918;-85
2022/06/17 12:48:20;;;;;;;0.87;0.70;;;24.50;50.80;;;;;;5052256;28;20458;-86
2022/06/17 12:53:59;;;;;;;0.50;0.40;;;24.50;50.70;;;;;;5051897;28;20476;-86
2022/06/17 12:56:53;;;;;;;1.03;0.80;;;24.50;50.70;;;;;;5034969;28;20565;-86
2022/06/17 12:59:43;;;;;;;1.33;0.90;;;24.80;55.40;;;;;;5032292;28;20431;-86
2022/06/17 13:02:39;;;;;;;0.70;0.70;;;24.60;51.10;;;;;;5055872;28;20462;-86
2022/06/17 13:05:35;;;;;;;0.70;0.60;;;24.60;51.20;;;;;;5052417;28;20430;-86
2022/06/17 13:08:01;;;;;;;0.60;0.50;;;;;;;;;;5043565;28;20456;-86
2022/06/17 13:10:57;;;;;;;0.83;0.60;;;24.60;52.30;;;;;;5052489;28;20518;-87
2022/06/17 13:13:52;;;;;;;0.80;0.80;;;24.70;67.00;;;;;;5052152;28;20644;-87
2022/06/17 13:16:18;;;;;;;0.70;0.60;;;;;;;;;;5058597;28;20454;-86
2022/06/17 13:18:54;;;;;;;1.00;0.90;;;24.60;50.90;;;;;;5053172;28;20703;-87
2022/06/17 13:21:33;;;;;;;0.77;0.77;;;24.70;50.90;;;;;;5053446;28;20196;-87
2022/06/17 13:24:28;;;;;;;0.70;0.63;;;24.70;50.90;;;;;;5049797;28;20767;-86
2022/06/17 13:27:05;;;;;;;0.50;0.50;;;24.90;51.90;;;;;;5052203;28;20789;-86
2022/06/17 13:29:53;;;;;;;0.60;0.60;;;24.70;50.60;;;;;;5049980;28;20437;-87
2022/06/17 13:32:54;;;;;;;0.60;0.60;;;24.70;50.40;;;;;;5048808;28;20843;-86
2022/06/17 13:35:33;;;;;;;0.70;0.70;;;24.70;50.40;;;;;;5015123;28;20794;-86
2022/06/17 13:38:09;;;;;;;2.53;0.67;;;25.20;52.80;;;;;;5048780;28;20512;-86
2022/06/17 13:40:43;;;;;;;0.60;0.60;;;24.70;52.30;;;;;;5048885;28;20434;-87
2022/06/17 13:43:18;;;;;;;0.87;0.87;;;24.60;59.80;;;;;;5051089;28;20820;-86
2022/06/17 13:46:01;;;;;;;1.33;0.80;;;24.80;50.10;;;;;;5051725;28;20423;-86
2022/06/17 13:48:42;;;;;;;0.50;0.50;;;24.80;50.00;;;;;;5050246;28;20406;-86
2022/06/17 13:51:39;;;;;;;1.17;0.50;;;24.80;49.90;;;;;;5049151;28;20438;-86
2022/06/17 13:54:17;;;;;;;0.63;0.63;;;24.80;49.90;;;;;;5050189;28;20430;-86
2022/06/17 13:57:07;;;;;;;0.60;0.60;;;24.50;54.20;;;;;;5049063;28;20447;-86